sensor_id;sensor_type;location;lat;lon;timestamp;P1;durP1;ratioP1;P2;durP2;ratioP2
27957;SDS011;15295;42.658;23.374;2022-12-13T00:00:56;11.40;;;5.45;;
27957;SDS011;15295;42.658;23.374;2022-12-13T00:03:23;9.15;;;4.80;;
27957;SDS011;15295;42.658;23.374;2022-12-13T00:05:53;11.90;;;5.40;;
27957;SDS011;15295;42.658;23.374;2022-12-13T00:08:29;9.90;;;5.72;;
27957;SDS011;15295;42.658;23.374;2022-12-13T00:10:59;9.70;;;5.60;;
27957;SDS011;15295;42.658;23.374;2022-12-13T00:13:28;10.07;;;6.10;;
27957;SDS011;15295;42.658;23.374;2022-12-13T00:15:59;10.90;;;6.13;;
27957;SDS011;15295;42.658;23.374;2022-12-13T00:18:27;10.40;;;5.30;;
27957;SDS011;15295;42.658;23.374;2022-12-13T00:20:53;12.07;;;5.80;;
27957;SDS011;15295;42.658;23.374;2022-12-13T00:23:19;12.35;;;6.53;;
27957;SDS011;15295;42.658;23.374;2022-12-13T00:25:46;11.98;;;6.30;;
27957;SDS011;15295;42.658;23.374;2022-12-13T00:28:16;10.93;;;6.03;;
27957;SDS011;15295;42.658;23.374;2022-12-13T00:30:45;10.60;;;6.15;;
27957;SDS011;15295;42.658;23.374;2022-12-13T00:33:12;11.63;;;6.00;;
27957;SDS011;15295;42.658;23.374;2022-12-13T00:35:39;13.98;;;6.18;;
27957;SDS011;15295;42.658;23.374;2022-12-13T00:38:06;11.38;;;6.45;;
27957;SDS011;15295;42.658;23.374;2022-12-13T00:40:37;13.93;;;6.68;;
27957;SDS011;15295;42.658;23.374;2022-12-13T00:43:12;12.32;;;6.05;;
27957;SDS011;15295;42.658;23.374;2022-12-13T00:45:39;14.20;;;6.70;;
27957;SDS011;15295;42.658;23.374;2022-12-13T00:48:11;10.82;;;6.10;;
27957;SDS011;15295;42.658;23.374;2022-12-13T00:50:37;13.23;;;6.95;;
27957;SDS011;15295;42.658;23.374;2022-12-13T00:53:09;11.35;;;6.30;;
27957;SDS011;15295;42.658;23.374;2022-12-13T00:55:44;13.40;;;6.93;;
27957;SDS011;15295;42.658;23.374;2022-12-13T00:58:20;12.70;;;7.15;;
27957;SDS011;15295;42.658;23.374;2022-12-13T01:00:49;10.98;;;7.10;;
27957;SDS011;15295;42.658;23.374;2022-12-13T01:03:36;12.07;;;6.93;;
27957;SDS011;15295;42.658;23.374;2022-12-13T01:06:14;14.45;;;8.07;;
27957;SDS011;15295;42.658;23.374;2022-12-13T01:08:49;13.57;;;7.63;;
27957;SDS011;15295;42.658;23.374;2022-12-13T01:13:43;13.45;;;6.40;;
27957;SDS011;15295;42.658;23.374;2022-12-13T01:16:11;14.13;;;7.43;;
27957;SDS011;15295;42.658;23.374;2022-12-13T01:18:43;14.35;;;7.43;;
27957;SDS011;15295;42.658;23.374;2022-12-13T01:21:10;14.32;;;7.78;;
27957;SDS011;15295;42.658;23.374;2022-12-13T01:23:41;14.45;;;7.55;;
27957;SDS011;15295;42.658;23.374;2022-12-13T01:26:13;12.32;;;6.93;;
27957;SDS011;15295;42.658;23.374;2022-12-13T01:28:46;14.85;;;6.50;;
27957;SDS011;15295;42.658;23.374;2022-12-13T01:31:39;12.98;;;6.82;;
27957;SDS011;15295;42.658;23.374;2022-12-13T01:34:07;14.50;;;7.28;;
27957;SDS011;15295;42.658;23.374;2022-12-13T01:36:35;14.05;;;8.32;;
27957;SDS011;15295;42.658;23.374;2022-12-13T01:39:02;20.00;;;8.93;;
27957;SDS011;15295;42.658;23.374;2022-12-13T01:41:33;20.38;;;8.50;;
27957;SDS011;15295;42.658;23.374;2022-12-13T01:44:02;19.15;;;8.95;;
27957;SDS011;15295;42.658;23.374;2022-12-13T01:46:32;17.83;;;8.93;;
27957;SDS011;15295;42.658;23.374;2022-12-13T01:49:05;17.63;;;8.43;;
27957;SDS011;15295;42.658;23.374;2022-12-13T01:51:38;19.17;;;9.38;;
27957;SDS011;15295;42.658;23.374;2022-12-13T01:54:08;15.57;;;8.40;;
27957;SDS011;15295;42.658;23.374;2022-12-13T01:56:42;15.15;;;7.97;;
27957;SDS011;15295;42.658;23.374;2022-12-13T01:59:12;16.05;;;8.95;;
27957;SDS011;15295;42.658;23.374;2022-12-13T02:01:44;17.35;;;9.00;;
27957;SDS011;15295;42.658;23.374;2022-12-13T02:04:11;14.95;;;8.25;;
27957;SDS011;15295;42.658;23.374;2022-12-13T02:06:41;12.82;;;7.97;;
27957;SDS011;15295;42.658;23.374;2022-12-13T02:09:13;14.93;;;8.25;;
27957;SDS011;15295;42.658;23.374;2022-12-13T02:11:41;14.32;;;8.35;;
27957;SDS011;15295;42.658;23.374;2022-12-13T02:14:08;14.75;;;8.65;;
27957;SDS011;15295;42.658;23.374;2022-12-13T02:16:42;17.73;;;9.48;;
27957;SDS011;15295;42.658;23.374;2022-12-13T02:28:12;15.38;;;8.68;;
27957;SDS011;15295;42.658;23.374;2022-12-13T02:30:49;15.13;;;8.70;;
27957;SDS011;15295;42.658;23.374;2022-12-13T02:33:21;16.40;;;9.23;;
27957;SDS011;15295;42.658;23.374;2022-12-13T02:36:16;17.52;;;9.75;;
27957;SDS011;15295;42.658;23.374;2022-12-13T02:38:59;16.38;;;9.30;;
27957;SDS011;15295;42.658;23.374;2022-12-13T02:41:39;18.23;;;10.00;;
27957;SDS011;15295;42.658;23.374;2022-12-13T02:44:34;19.42;;;9.77;;
27957;SDS011;15295;42.658;23.374;2022-12-13T02:47:14;18.42;;;9.68;;
27957;SDS011;15295;42.658;23.374;2022-12-13T02:49:50;14.77;;;8.75;;
27957;SDS011;15295;42.658;23.374;2022-12-13T02:52:24;17.80;;;9.20;;
27957;SDS011;15295;42.658;23.374;2022-12-13T02:54:53;19.52;;;9.25;;
27957;SDS011;15295;42.658;23.374;2022-12-13T02:57:35;16.95;;;9.45;;
27957;SDS011;15295;42.658;23.374;2022-12-13T03:00:12;20.25;;;9.95;;
27957;SDS011;15295;42.658;23.374;2022-12-13T03:15:15;15.48;;;8.48;;
27957;SDS011;15295;42.658;23.374;2022-12-13T03:17:49;15.40;;;8.32;;
27957;SDS011;15295;42.658;23.374;2022-12-13T03:20:26;18.83;;;8.85;;
27957;SDS011;15295;42.658;23.374;2022-12-13T03:22:56;14.45;;;7.72;;
27957;SDS011;15295;42.658;23.374;2022-12-13T03:25:26;14.48;;;8.63;;
27957;SDS011;15295;42.658;23.374;2022-12-13T03:27:57;16.92;;;8.05;;
27957;SDS011;15295;42.658;23.374;2022-12-13T03:30:23;18.90;;;8.23;;
27957;SDS011;15295;42.658;23.374;2022-12-13T03:32:49;16.42;;;7.85;;
27957;SDS011;15295;42.658;23.374;2022-12-13T03:35:18;17.73;;;8.77;;
27957;SDS011;15295;42.658;23.374;2022-12-13T03:37:44;16.05;;;8.85;;
27957;SDS011;15295;42.658;23.374;2022-12-13T03:40:10;17.05;;;8.25;;
27957;SDS011;15295;42.658;23.374;2022-12-13T03:42:39;14.80;;;8.25;;
27957;SDS011;15295;42.658;23.374;2022-12-13T03:45:15;16.67;;;8.55;;
27957;SDS011;15295;42.658;23.374;2022-12-13T03:47:43;14.55;;;8.15;;
27957;SDS011;15295;42.658;23.374;2022-12-13T03:50:08;18.65;;;8.38;;
27957;SDS011;15295;42.658;23.374;2022-12-13T03:52:35;18.08;;;8.90;;
27957;SDS011;15295;42.658;23.374;2022-12-13T03:55:01;15.93;;;8.57;;
27957;SDS011;15295;42.658;23.374;2022-12-13T03:57:27;18.48;;;8.93;;
27957;SDS011;15295;42.658;23.374;2022-12-13T03:59:59;16.50;;;8.07;;
27957;SDS011;15295;42.658;23.374;2022-12-13T04:02:25;19.10;;;9.38;;
27957;SDS011;15295;42.658;23.374;2022-12-13T04:04:52;18.13;;;9.52;;
27957;SDS011;15295;42.658;23.374;2022-12-13T04:07:19;17.48;;;9.20;;
27957;SDS011;15295;42.658;23.374;2022-12-13T04:09:46;18.63;;;9.75;;
27957;SDS011;15295;42.658;23.374;2022-12-13T04:12:11;19.83;;;10.05;;
27957;SDS011;15295;42.658;23.374;2022-12-13T04:15:02;21.13;;;9.27;;
27957;SDS011;15295;42.658;23.374;2022-12-13T04:17:29;18.83;;;8.68;;
27957;SDS011;15295;42.658;23.374;2022-12-13T04:19:57;18.02;;;10.02;;
27957;SDS011;15295;42.658;23.374;2022-12-13T04:22:44;19.65;;;10.05;;
27957;SDS011;15295;42.658;23.374;2022-12-13T04:25:11;19.20;;;10.23;;
27957;SDS011;15295;42.658;23.374;2022-12-13T04:27:37;18.20;;;10.43;;
27957;SDS011;15295;42.658;23.374;2022-12-13T04:32:34;21.42;;;11.20;;
27957;SDS011;15295;42.658;23.374;2022-12-13T04:35:04;23.13;;;11.48;;
27957;SDS011;15295;42.658;23.374;2022-12-13T04:37:29;18.23;;;10.50;;
27957;SDS011;15295;42.658;23.374;2022-12-13T04:39:59;21.88;;;11.98;;
27957;SDS011;15295;42.658;23.374;2022-12-13T04:42:25;21.70;;;10.93;;
27957;SDS011;15295;42.658;23.374;2022-12-13T04:44:50;23.15;;;10.82;;
27957;SDS011;15295;42.658;23.374;2022-12-13T04:47:18;21.80;;;10.90;;
27957;SDS011;15295;42.658;23.374;2022-12-13T04:49:49;20.75;;;11.65;;
27957;SDS011;15295;42.658;23.374;2022-12-13T04:52:25;23.00;;;11.75;;
27957;SDS011;15295;42.658;23.374;2022-12-13T04:54:54;23.42;;;11.70;;
27957;SDS011;15295;42.658;23.374;2022-12-13T04:57:22;19.90;;;11.30;;
27957;SDS011;15295;42.658;23.374;2022-12-13T04:59:49;22.30;;;11.02;;
27957;SDS011;15295;42.658;23.374;2022-12-13T05:02:19;24.45;;;12.27;;
27957;SDS011;15295;42.658;23.374;2022-12-13T05:04:46;22.45;;;11.45;;
27957;SDS011;15295;42.658;23.374;2022-12-13T05:07:11;23.63;;;12.85;;
27957;SDS011;15295;42.658;23.374;2022-12-13T05:09:47;20.80;;;11.57;;
27957;SDS011;15295;42.658;23.374;2022-12-13T05:12:13;20.08;;;10.52;;
27957;SDS011;15295;42.658;23.374;2022-12-13T05:14:39;19.02;;;10.27;;
27957;SDS011;15295;42.658;23.374;2022-12-13T05:17:05;23.23;;;11.50;;
27957;SDS011;15295;42.658;23.374;2022-12-13T05:19:44;22.75;;;10.48;;
27957;SDS011;15295;42.658;23.374;2022-12-13T05:22:42;18.73;;;10.05;;
27957;SDS011;15295;42.658;23.374;2022-12-13T05:25:29;22.23;;;10.77;;
27957;SDS011;15295;42.658;23.374;2022-12-13T05:28:26;21.73;;;10.07;;
27957;SDS011;15295;42.658;23.374;2022-12-13T05:30:56;19.88;;;10.10;;
27957;SDS011;15295;42.658;23.374;2022-12-13T05:33:29;20.30;;;10.40;;
27957;SDS011;15295;42.658;23.374;2022-12-13T05:35:55;19.48;;;10.05;;
27957;SDS011;15295;42.658;23.374;2022-12-13T05:38:20;20.02;;;9.90;;
27957;SDS011;15295;42.658;23.374;2022-12-13T05:40:46;18.23;;;9.85;;
27957;SDS011;15295;42.658;23.374;2022-12-13T05:43:16;19.20;;;9.68;;
27957;SDS011;15295;42.658;23.374;2022-12-13T05:45:48;20.77;;;9.98;;
27957;SDS011;15295;42.658;23.374;2022-12-13T05:48:24;25.13;;;10.65;;
27957;SDS011;15295;42.658;23.374;2022-12-13T05:50:55;18.48;;;9.98;;
27957;SDS011;15295;42.658;23.374;2022-12-13T05:53:22;19.67;;;10.40;;
27957;SDS011;15295;42.658;23.374;2022-12-13T05:55:51;21.50;;;11.15;;
27957;SDS011;15295;42.658;23.374;2022-12-13T05:58:16;23.88;;;11.70;;
27957;SDS011;15295;42.658;23.374;2022-12-13T06:00:43;18.48;;;9.95;;
27957;SDS011;15295;42.658;23.374;2022-12-13T06:03:15;19.35;;;10.52;;
27957;SDS011;15295;42.658;23.374;2022-12-13T06:05:41;19.67;;;9.93;;
27957;SDS011;15295;42.658;23.374;2022-12-13T06:08:08;19.23;;;9.70;;
27957;SDS011;15295;42.658;23.374;2022-12-13T06:10:34;19.80;;;10.95;;
27957;SDS011;15295;42.658;23.374;2022-12-13T06:13:03;23.50;;;11.52;;
27957;SDS011;15295;42.658;23.374;2022-12-13T06:15:31;23.38;;;11.38;;
27957;SDS011;15295;42.658;23.374;2022-12-13T06:17:58;24.73;;;11.63;;
27957;SDS011;15295;42.658;23.374;2022-12-13T06:20:27;21.27;;;10.90;;
27957;SDS011;15295;42.658;23.374;2022-12-13T06:22:53;24.55;;;12.75;;
27957;SDS011;15295;42.658;23.374;2022-12-13T06:25:19;25.35;;;11.77;;
27957;SDS011;15295;42.658;23.374;2022-12-13T06:27:45;30.75;;;13.15;;
27957;SDS011;15295;42.658;23.374;2022-12-13T06:30:10;24.70;;;11.48;;
27957;SDS011;15295;42.658;23.374;2022-12-13T06:32:54;23.02;;;11.30;;
27957;SDS011;15295;42.658;23.374;2022-12-13T06:35:29;22.65;;;11.43;;
27957;SDS011;15295;42.658;23.374;2022-12-13T06:38:26;21.10;;;11.05;;
27957;SDS011;15295;42.658;23.374;2022-12-13T06:40:53;25.65;;;11.65;;
27957;SDS011;15295;42.658;23.374;2022-12-13T06:43:19;22.33;;;11.35;;
27957;SDS011;15295;42.658;23.374;2022-12-13T06:53:35;26.60;;;11.57;;
27957;SDS011;15295;42.658;23.374;2022-12-13T06:56:21;26.00;;;11.73;;
27957;SDS011;15295;42.658;23.374;2022-12-13T06:58:48;22.85;;;11.50;;
27957;SDS011;15295;42.658;23.374;2022-12-13T07:44:55;24.30;;;11.57;;
27957;SDS011;15295;42.658;23.374;2022-12-13T07:47:20;57.38;;;13.05;;
27957;SDS011;15295;42.658;23.374;2022-12-13T07:49:45;22.75;;;11.93;;
27957;SDS011;15295;42.658;23.374;2022-12-13T07:52:11;24.05;;;12.38;;
27957;SDS011;15295;42.658;23.374;2022-12-13T07:54:36;26.27;;;13.40;;
27957;SDS011;15295;42.658;23.374;2022-12-13T07:57:02;20.00;;;11.90;;
27957;SDS011;15295;42.658;23.374;2022-12-13T07:59:27;23.85;;;11.45;;
27957;SDS011;15295;42.658;23.374;2022-12-13T08:01:53;25.63;;;12.77;;
27957;SDS011;15295;42.658;23.374;2022-12-13T08:04:18;21.52;;;11.73;;
27957;SDS011;15295;42.658;23.374;2022-12-13T08:06:44;19.40;;;11.20;;
27957;SDS011;15295;42.658;23.374;2022-12-13T08:09:09;23.95;;;12.13;;
27957;SDS011;15295;42.658;23.374;2022-12-13T08:11:35;20.77;;;11.82;;
27957;SDS011;15295;42.658;23.374;2022-12-13T08:14:00;23.33;;;11.60;;
27957;SDS011;15295;42.658;23.374;2022-12-13T08:16:25;35.75;;;15.68;;
27957;SDS011;15295;42.658;23.374;2022-12-13T08:18:51;19.67;;;11.20;;
27957;SDS011;15295;42.658;23.374;2022-12-13T08:21:16;21.90;;;11.77;;
27957;SDS011;15295;42.658;23.374;2022-12-13T08:23:43;21.23;;;11.38;;
27957;SDS011;15295;42.658;23.374;2022-12-13T08:26:08;21.92;;;10.32;;
27957;SDS011;15295;42.658;23.374;2022-12-13T08:28:34;19.88;;;11.23;;
27957;SDS011;15295;42.658;23.374;2022-12-13T08:31:05;20.08;;;11.63;;
27957;SDS011;15295;42.658;23.374;2022-12-13T08:33:33;20.45;;;10.70;;
27957;SDS011;15295;42.658;23.374;2022-12-13T08:38:35;15.38;;;9.02;;
27957;SDS011;15295;42.658;23.374;2022-12-13T08:41:00;18.48;;;10.20;;
27957;SDS011;15295;42.658;23.374;2022-12-13T08:43:26;14.30;;;9.35;;
27957;SDS011;15295;42.658;23.374;2022-12-13T08:45:51;15.23;;;8.25;;
27957;SDS011;15295;42.658;23.374;2022-12-13T08:48:16;17.20;;;9.55;;
27957;SDS011;15295;42.658;23.374;2022-12-13T08:50:42;17.73;;;9.43;;
27957;SDS011;15295;42.658;23.374;2022-12-13T08:53:07;15.98;;;9.02;;
27957;SDS011;15295;42.658;23.374;2022-12-13T08:55:33;15.07;;;9.20;;
27957;SDS011;15295;42.658;23.374;2022-12-13T08:58:02;15.65;;;10.10;;
27957;SDS011;15295;42.658;23.374;2022-12-13T09:00:32;15.15;;;8.50;;
27957;SDS011;15295;42.658;23.374;2022-12-13T09:02:58;20.38;;;13.55;;
27957;SDS011;15295;42.658;23.374;2022-12-13T09:05:24;15.93;;;9.50;;
27957;SDS011;15295;42.658;23.374;2022-12-13T09:07:53;14.60;;;9.65;;
27957;SDS011;15295;42.658;23.374;2022-12-13T09:10:19;20.13;;;12.45;;
27957;SDS011;15295;42.658;23.374;2022-12-13T09:12:46;33.58;;;17.08;;
27957;SDS011;15295;42.658;23.374;2022-12-13T09:15:12;25.63;;;14.43;;
27957;SDS011;15295;42.658;23.374;2022-12-13T09:17:38;31.30;;;19.35;;
27957;SDS011;15295;42.658;23.374;2022-12-13T09:20:04;16.00;;;11.00;;
27957;SDS011;15295;42.658;23.374;2022-12-13T09:22:31;63.97;;;36.97;;
27957;SDS011;15295;42.658;23.374;2022-12-13T09:24:57;51.25;;;32.45;;
27957;SDS011;15295;42.658;23.374;2022-12-13T09:27:22;40.38;;;24.38;;
27957;SDS011;15295;42.658;23.374;2022-12-13T09:29:48;42.15;;;26.55;;
27957;SDS011;15295;42.658;23.374;2022-12-13T09:32:14;20.75;;;12.82;;
27957;SDS011;15295;42.658;23.374;2022-12-13T09:34:39;17.17;;;10.18;;
27957;SDS011;15295;42.658;23.374;2022-12-13T09:37:05;13.20;;;8.10;;
27957;SDS011;15295;42.658;23.374;2022-12-13T09:39:30;14.00;;;9.00;;
27957;SDS011;15295;42.658;23.374;2022-12-13T09:41:56;17.30;;;9.35;;
27957;SDS011;15295;42.658;23.374;2022-12-13T09:44:26;12.02;;;8.38;;
27957;SDS011;15295;42.658;23.374;2022-12-13T09:46:55;18.90;;;12.00;;
27957;SDS011;15295;42.658;23.374;2022-12-13T09:49:30;18.90;;;12.98;;
27957;SDS011;15295;42.658;23.374;2022-12-13T09:52:00;20.77;;;14.13;;
27957;SDS011;15295;42.658;23.374;2022-12-13T09:54:28;14.13;;;8.77;;
27957;SDS011;15295;42.658;23.374;2022-12-13T09:56:54;11.90;;;8.88;;
27957;SDS011;15295;42.658;23.374;2022-12-13T09:59:27;17.65;;;11.32;;
27957;SDS011;15295;42.658;23.374;2022-12-13T10:01:55;16.45;;;9.95;;
27957;SDS011;15295;42.658;23.374;2022-12-13T10:04:26;14.32;;;9.70;;
27957;SDS011;15295;42.658;23.374;2022-12-13T10:06:53;13.68;;;9.02;;
27957;SDS011;15295;42.658;23.374;2022-12-13T10:09:18;14.18;;;9.55;;
27957;SDS011;15295;42.658;23.374;2022-12-13T10:11:45;14.30;;;9.15;;
27957;SDS011;15295;42.658;23.374;2022-12-13T10:14:23;15.05;;;10.02;;
27957;SDS011;15295;42.658;23.374;2022-12-13T10:16:56;17.98;;;11.93;;
27957;SDS011;15295;42.658;23.374;2022-12-13T10:19:31;14.73;;;9.23;;
27957;SDS011;15295;42.658;23.374;2022-12-13T10:21:59;15.20;;;10.00;;
27957;SDS011;15295;42.658;23.374;2022-12-13T10:24:28;22.30;;;15.93;;
27957;SDS011;15295;42.658;23.374;2022-12-13T10:27:12;17.50;;;10.65;;
27957;SDS011;15295;42.658;23.374;2022-12-13T10:33:05;15.38;;;10.32;;
27957;SDS011;15295;42.658;23.374;2022-12-13T10:35:33;14.38;;;10.10;;
27957;SDS011;15295;42.658;23.374;2022-12-13T10:43:06;17.48;;;12.63;;
27957;SDS011;15295;42.658;23.374;2022-12-13T10:45:32;22.45;;;12.88;;
27957;SDS011;15295;42.658;23.374;2022-12-13T10:47:57;15.45;;;10.20;;
27957;SDS011;15295;42.658;23.374;2022-12-13T10:50:24;13.57;;;9.48;;
27957;SDS011;15295;42.658;23.374;2022-12-13T10:52:51;15.00;;;10.52;;
27957;SDS011;15295;42.658;23.374;2022-12-13T10:58:17;14.43;;;9.40;;
27957;SDS011;15295;42.658;23.374;2022-12-13T11:00:43;12.73;;;8.63;;
27957;SDS011;15295;42.658;23.374;2022-12-13T11:03:27;16.35;;;9.75;;
27957;SDS011;15295;42.658;23.374;2022-12-13T11:06:02;14.20;;;9.53;;
27957;SDS011;15295;42.658;23.374;2022-12-13T11:08:29;14.82;;;9.18;;
27957;SDS011;15295;42.658;23.374;2022-12-13T11:13:45;16.08;;;10.35;;
27957;SDS011;15295;42.658;23.374;2022-12-13T11:18:42;15.68;;;10.98;;
27957;SDS011;15295;42.658;23.374;2022-12-13T11:21:07;17.20;;;10.65;;
27957;SDS011;15295;42.658;23.374;2022-12-13T11:23:37;19.85;;;11.57;;
27957;SDS011;15295;42.658;23.374;2022-12-13T11:26:08;20.60;;;12.98;;
27957;SDS011;15295;42.658;23.374;2022-12-13T11:28:55;19.95;;;12.85;;
27957;SDS011;15295;42.658;23.374;2022-12-13T11:31:40;20.73;;;11.65;;
27957;SDS011;15295;42.658;23.374;2022-12-13T11:39:16;17.83;;;11.90;;
27957;SDS011;15295;42.658;23.374;2022-12-13T11:41:53;16.48;;;11.50;;
27957;SDS011;15295;42.658;23.374;2022-12-13T11:47:17;18.37;;;10.20;;
27957;SDS011;15295;42.658;23.374;2022-12-13T11:49:50;14.25;;;9.65;;
27957;SDS011;15295;42.658;23.374;2022-12-13T11:52:24;13.43;;;9.07;;
27957;SDS011;15295;42.658;23.374;2022-12-13T11:54:56;17.88;;;11.80;;
27957;SDS011;15295;42.658;23.374;2022-12-13T12:00:35;14.85;;;10.05;;
27957;SDS011;15295;42.658;23.374;2022-12-13T12:08:45;21.65;;;13.25;;
27957;SDS011;15295;42.658;23.374;2022-12-13T12:14:22;25.92;;;16.80;;
27957;SDS011;15295;42.658;23.374;2022-12-13T12:16:56;25.77;;;16.35;;
27957;SDS011;15295;42.658;23.374;2022-12-13T12:19:28;25.05;;;16.30;;
27957;SDS011;15295;42.658;23.374;2022-12-13T12:24:43;27.58;;;16.95;;
27957;SDS011;15295;42.658;23.374;2022-12-13T12:35:42;24.27;;;16.02;;
27957;SDS011;15295;42.658;23.374;2022-12-13T12:43:33;23.75;;;14.30;;
27957;SDS011;15295;42.658;23.374;2022-12-13T12:56:58;23.83;;;15.30;;
27957;SDS011;15295;42.658;23.374;2022-12-13T12:59:56;24.42;;;15.88;;
27957;SDS011;15295;42.658;23.374;2022-12-13T13:02:42;23.30;;;14.68;;
27957;SDS011;15295;42.658;23.374;2022-12-13T13:05:17;22.95;;;14.88;;
27957;SDS011;15295;42.658;23.374;2022-12-13T13:07:58;25.10;;;14.05;;
27957;SDS011;15295;42.658;23.374;2022-12-13T13:10:44;24.00;;;13.10;;
27957;SDS011;15295;42.658;23.374;2022-12-13T13:16:31;17.58;;;11.60;;
27957;SDS011;15295;42.658;23.374;2022-12-13T13:19:03;17.60;;;11.20;;
27957;SDS011;15295;42.658;23.374;2022-12-13T13:37:02;19.33;;;11.23;;
27957;SDS011;15295;42.658;23.374;2022-12-13T13:58:08;30.05;;;16.25;;
27957;SDS011;15295;42.658;23.374;2022-12-13T14:06:11;22.08;;;11.93;;
27957;SDS011;15295;42.658;23.374;2022-12-13T14:20:08;48.92;;;23.08;;
27957;SDS011;15295;42.658;23.374;2022-12-13T14:25:46;44.53;;;23.02;;
27957;SDS011;15295;42.658;23.374;2022-12-13T14:31:13;42.17;;;22.80;;
27957;SDS011;15295;42.658;23.374;2022-12-13T14:33:42;48.42;;;24.92;;
27957;SDS011;15295;42.658;23.374;2022-12-13T14:36:12;42.00;;;23.73;;
27957;SDS011;15295;42.658;23.374;2022-12-13T14:38:40;40.15;;;20.60;;
27957;SDS011;15295;42.658;23.374;2022-12-13T14:41:05;50.28;;;22.35;;
27957;SDS011;15295;42.658;23.374;2022-12-13T14:43:39;47.35;;;24.70;;
27957;SDS011;15295;42.658;23.374;2022-12-13T14:46:05;45.58;;;23.73;;
27957;SDS011;15295;42.658;23.374;2022-12-13T14:48:33;35.15;;;20.00;;
27957;SDS011;15295;42.658;23.374;2022-12-13T14:53:59;44.20;;;24.00;;
27957;SDS011;15295;42.658;23.374;2022-12-13T14:56:28;44.33;;;23.95;;
27957;SDS011;15295;42.658;23.374;2022-12-13T14:59:21;48.72;;;23.38;;
27957;SDS011;15295;42.658;23.374;2022-12-13T15:01:55;50.03;;;23.60;;
27957;SDS011;15295;42.658;23.374;2022-12-13T15:04:30;49.47;;;24.10;;
27957;SDS011;15295;42.658;23.374;2022-12-13T15:12:07;45.83;;;22.13;;
27957;SDS011;15295;42.658;23.374;2022-12-13T15:14:37;42.35;;;22.30;;
27957;SDS011;15295;42.658;23.374;2022-12-13T15:17:10;39.25;;;20.95;;
27957;SDS011;15295;42.658;23.374;2022-12-13T15:22:46;43.95;;;22.35;;
27957;SDS011;15295;42.658;23.374;2022-12-13T15:25:12;43.53;;;23.13;;
27957;SDS011;15295;42.658;23.374;2022-12-13T15:27:40;48.40;;;24.10;;
27957;SDS011;15295;42.658;23.374;2022-12-13T15:30:14;51.03;;;26.40;;
27957;SDS011;15295;42.658;23.374;2022-12-13T15:35:32;52.83;;;28.05;;
27957;SDS011;15295;42.658;23.374;2022-12-13T15:38:00;52.83;;;25.80;;
27957;SDS011;15295;42.658;23.374;2022-12-13T15:40:32;46.92;;;23.38;;
27957;SDS011;15295;42.658;23.374;2022-12-13T15:42:58;52.92;;;24.63;;
27957;SDS011;15295;42.658;23.374;2022-12-13T15:45:24;49.95;;;25.45;;
27957;SDS011;15295;42.658;23.374;2022-12-13T15:47:52;47.70;;;23.52;;
27957;SDS011;15295;42.658;23.374;2022-12-13T15:50:35;50.00;;;24.33;;
27957;SDS011;15295;42.658;23.374;2022-12-13T15:58:25;52.00;;;26.90;;
27957;SDS011;15295;42.658;23.374;2022-12-13T16:04:05;55.28;;;25.60;;
27957;SDS011;15295;42.658;23.374;2022-12-13T16:06:34;49.38;;;25.20;;
27957;SDS011;15295;42.658;23.374;2022-12-13T16:09:01;48.53;;;24.63;;
27957;SDS011;15295;42.658;23.374;2022-12-13T16:11:29;48.85;;;23.48;;
27957;SDS011;15295;42.658;23.374;2022-12-13T16:16:47;45.75;;;23.77;;
27957;SDS011;15295;42.658;23.374;2022-12-13T16:19:14;50.13;;;23.35;;
27957;SDS011;15295;42.658;23.374;2022-12-13T16:21:43;44.67;;;21.70;;
27957;SDS011;15295;42.658;23.374;2022-12-13T16:24:08;38.38;;;20.02;;
27957;SDS011;15295;42.658;23.374;2022-12-13T16:26:33;37.35;;;19.52;;
27957;SDS011;15295;42.658;23.374;2022-12-13T16:28:59;43.42;;;21.40;;
27957;SDS011;15295;42.658;23.374;2022-12-13T16:36:46;48.67;;;25.27;;
27957;SDS011;15295;42.658;23.374;2022-12-13T16:39:11;52.40;;;25.00;;
27957;SDS011;15295;42.658;23.374;2022-12-13T16:41:41;43.63;;;23.38;;
27957;SDS011;15295;42.658;23.374;2022-12-13T16:44:08;49.60;;;23.40;;
27957;SDS011;15295;42.658;23.374;2022-12-13T16:46:43;49.25;;;24.17;;
27957;SDS011;15295;42.658;23.374;2022-12-13T16:49:17;51.47;;;24.17;;
27957;SDS011;15295;42.658;23.374;2022-12-13T16:51:45;55.78;;;28.77;;
27957;SDS011;15295;42.658;23.374;2022-12-13T16:54:11;57.10;;;26.70;;
27957;SDS011;15295;42.658;23.374;2022-12-13T17:02:00;59.97;;;28.55;;
27957;SDS011;15295;42.658;23.374;2022-12-13T17:04:26;69.72;;;31.90;;
27957;SDS011;15295;42.658;23.374;2022-12-13T17:06:51;56.97;;;26.88;;
27957;SDS011;15295;42.658;23.374;2022-12-13T17:09:17;50.70;;;24.80;;
27957;SDS011;15295;42.658;23.374;2022-12-13T17:11:43;35.45;;;18.33;;
27957;SDS011;15295;42.658;23.374;2022-12-13T17:14:08;42.00;;;19.65;;
27957;SDS011;15295;42.658;23.374;2022-12-13T17:16:34;50.20;;;23.10;;
27957;SDS011;15295;42.658;23.374;2022-12-13T17:19:26;50.75;;;23.88;;
27957;SDS011;15295;42.658;23.374;2022-12-13T17:22:05;57.58;;;26.15;;
27957;SDS011;15295;42.658;23.374;2022-12-13T17:24:30;63.45;;;29.67;;
27957;SDS011;15295;42.658;23.374;2022-12-13T17:27:00;60.22;;;28.50;;
27957;SDS011;15295;42.658;23.374;2022-12-13T17:29:34;56.38;;;28.48;;
27957;SDS011;15295;42.658;23.374;2022-12-13T17:32:01;60.15;;;28.92;;
27957;SDS011;15295;42.658;23.374;2022-12-13T17:34:28;68.82;;;28.05;;
27957;SDS011;15295;42.658;23.374;2022-12-13T17:39:34;57.10;;;27.48;;
27957;SDS011;15295;42.658;23.374;2022-12-13T17:44:30;57.35;;;27.17;;
27957;SDS011;15295;42.658;23.374;2022-12-13T17:46:56;53.85;;;25.15;;
27957;SDS011;15295;42.658;23.374;2022-12-13T17:49:21;53.60;;;26.15;;
27957;SDS011;15295;42.658;23.374;2022-12-13T17:51:48;56.25;;;25.75;;
27957;SDS011;15295;42.658;23.374;2022-12-13T17:56:53;54.42;;;26.08;;
27957;SDS011;15295;42.658;23.374;2022-12-13T18:07:54;52.42;;;23.85;;
27957;SDS011;15295;42.658;23.374;2022-12-13T18:10:28;50.78;;;24.15;;
27957;SDS011;15295;42.658;23.374;2022-12-13T18:12:56;49.88;;;23.17;;
27957;SDS011;15295;42.658;23.374;2022-12-13T18:15:22;53.65;;;23.23;;
27957;SDS011;15295;42.658;23.374;2022-12-13T18:20:22;46.72;;;23.17;;
27957;SDS011;15295;42.658;23.374;2022-12-13T18:22:48;45.25;;;22.58;;
27957;SDS011;15295;42.658;23.374;2022-12-13T18:25:14;52.10;;;23.73;;
27957;SDS011;15295;42.658;23.374;2022-12-13T18:27:40;44.83;;;21.98;;
27957;SDS011;15295;42.658;23.374;2022-12-13T18:30:06;49.97;;;23.23;;
27957;SDS011;15295;42.658;23.374;2022-12-13T18:32:32;47.95;;;23.38;;
27957;SDS011;15295;42.658;23.374;2022-12-13T18:34:57;50.90;;;24.85;;
27957;SDS011;15295;42.658;23.374;2022-12-13T18:37:28;46.35;;;23.27;;
27957;SDS011;15295;42.658;23.374;2022-12-13T18:39:58;45.50;;;22.75;;
27957;SDS011;15295;42.658;23.374;2022-12-13T18:44:59;47.92;;;24.10;;
27957;SDS011;15295;42.658;23.374;2022-12-13T18:47:27;50.65;;;25.05;;
27957;SDS011;15295;42.658;23.374;2022-12-13T18:49:56;46.78;;;24.25;;
27957;SDS011;15295;42.658;23.374;2022-12-13T18:52:23;50.63;;;24.40;;